Time;durP1;ratioP1;P1;durP2;ratioP2;P2;SDS_P1;SDS_P2;PMS_P1;PMS_P2;Temp;Humidity;BMP_temperature;BMP_pressure;BME280_temperature;BME280_humidity;BME280_pressure;Samples;Min_cycle;Max_cycle;Signal;HPM_P1;HPM_P2
2022/12/08 00:01:27;;;;;;;11.65;10.25;;;7.70;84.20;;;;;;10825174;33;20024;-75
2022/12/08 00:13:50;;;;;;;13.85;9.60;;;7.70;84.10;;;;;;10825098;33;20046;-75
2022/12/08 00:19:53;;;;;;;11.32;8.35;;;7.70;84.10;;;;;;10828031;27;20086;-74
2022/12/08 00:25:54;;;;;;;10.18;8.02;;;7.60;84.00;;;;;;10824592;33;20028;-75
2022/12/08 00:31:57;;;;;;;9.57;7.37;;;7.50;84.10;;;;;;10823755;33;20311;-75
2022/12/08 00:37:58;;;;;;;10.00;7.25;;;7.30;84.60;;;;;;10820261;33;20024;-75
2022/12/08 00:44:00;;;;;;;9.15;7.00;;;7.40;84.50;;;;;;10824196;33;20028;-75
2022/12/08 00:50:03;;;;;;;9.73;6.07;;;7.20;84.50;;;;;;10822404;33;20078;-75
2022/12/08 00:56:05;;;;;;;9.57;6.82;;;7.20;84.90;;;;;;10826831;32;20398;-75
2022/12/08 01:02:07;;;;;;;13.45;8.45;;;7.30;84.70;;;;;;10827600;33;20065;-75
2022/12/08 01:08:09;;;;;;;9.63;6.93;;;7.20;84.50;;;;;;10817087;33;20027;-75
2022/12/08 01:14:12;;;;;;;10.30;6.30;;;7.30;84.20;;;;;;10830096;33;20046;-75
2022/12/08 01:20:14;;;;;;;10.23;7.20;;;7.20;84.20;;;;;;10829891;32;20036;-75
2022/12/08 01:26:18;;;;;;;9.05;6.55;;;7.20;84.10;;;;;;10827221;33;20054;-75
2022/12/08 01:32:20;;;;;;;8.30;5.70;;;7.20;83.80;;;;;;10829518;33;20051;-75
2022/12/08 01:38:22;;;;;;;10.07;6.45;;;6.80;83.90;;;;;;10816345;33;20016;-75
2022/12/08 01:44:24;;;;;;;9.10;6.47;;;6.50;84.50;;;;;;10829043;33;20032;-75
2022/12/08 01:50:27;;;;;;;6.82;5.43;;;6.30;84.90;;;;;;10829128;33;20416;-75
2022/12/08 01:56:55;;;;;;;9.88;7.22;;;6.20;85.20;;;;;;10826714;32;20342;-76
2022/12/08 02:03:02;;;;;;;9.52;6.12;;;6.10;85.30;;;;;;10643863;33;20052;-75
2022/12/08 02:09:05;;;;;;;10.60;6.97;;;6.10;85.60;;;;;;10641131;33;20141;-75
2022/12/08 02:15:08;;;;;;;9.88;6.82;;;6.40;85.50;;;;;;10643883;33;20017;-75
2022/12/08 02:21:20;;;;;;;10.02;5.93;;;6.50;85.10;;;;;;10640231;33;20038;-75
2022/12/08 02:27:50;;;;;;;8.43;6.60;;;6.50;84.90;;;;;;10643461;33;20193;-75
2022/12/08 02:34:28;;;;;;;10.63;6.40;;;6.30;85.30;;;;;;10643263;33;20344;-75
2022/12/08 02:40:55;;;;;;;7.90;5.70;;;6.20;85.50;;;;;;10891712;32;20047;-75
2022/12/08 02:47:05;;;;;;;8.82;6.07;;;6.10;85.70;;;;;;10903310;32;20321;-75
2022/12/08 02:53:07;;;;;;;8.80;4.93;;;6.30;85.70;;;;;;10903129;32;20031;-75
2022/12/08 02:59:39;;;;;;;7.95;5.22;;;6.50;85.20;;;;;;10890520;32;20463;-75
2022/12/08 03:06:08;;;;;;;9.20;5.97;;;6.30;85.20;;;;;;10902299;32;20043;-75
2022/12/08 03:19:42;;;;;;;6.35;4.35;;;6.40;85.50;;;;;;10826437;32;20027;-75
2022/12/08 03:26:12;;;;;;;7.22;4.90;;;6.20;85.40;;;;;;10826159;33;20398;-76
2022/12/08 03:32:20;;;;;;;;;;;6.00;85.80;;;;;;10826289;33;20047;-75
2022/12/08 03:38:22;;;;;;;9.32;6.07;;;6.20;86.10;;;;;;10825988;33;19927;-75
2022/12/08 03:44:24;;;;;;;7.60;5.40;;;6.20;85.80;;;;;;10822737;33;20337;-75
2022/12/08 03:50:26;;;;;;;6.95;5.12;;;5.90;86.00;;;;;;10825712;33;20016;-76
2022/12/08 03:56:34;;;;;;;8.10;5.30;;;6.00;86.10;;;;;;10825375;33;20028;-75
2022/12/08 04:02:36;;;;;;;9.10;6.07;;;6.10;85.80;;;;;;10825229;33;20020;-75
2022/12/08 04:08:39;;;;;;;9.35;6.12;;;5.90;85.50;;;;;;10822658;32;20035;-75
2022/12/08 04:14:41;;;;;;;7.68;5.80;;;6.00;85.70;;;;;;10824847;33;20042;-76
2022/12/08 04:20:45;;;;;;;10.35;5.20;;;6.20;85.70;;;;;;10810370;32;20046;-76
2022/12/08 04:26:48;;;;;;;7.65;5.78;;;6.40;85.40;;;;;;10824640;33;20047;-75
2022/12/08 04:32:50;;;;;;;7.45;5.07;;;6.30;85.20;;;;;;10820051;33;20020;-75
2022/12/08 04:38:52;;;;;;;7.70;5.40;;;6.30;85.10;;;;;;10824572;32;20480;-76
2022/12/08 04:44:54;;;;;;;8.20;5.62;;;6.10;85.10;;;;;;10820799;33;20027;-75
2022/12/08 04:50:58;;;;;;;10.05;7.87;;;6.20;85.20;;;;;;10820218;33;20024;-75
2022/12/08 04:57:00;;;;;;;8.55;6.18;;;6.20;85.80;;;;;;10824125;33;20050;-75
2022/12/08 05:03:02;;;;;;;8.40;5.62;;;6.40;85.90;;;;;;10821959;33;20032;-76
2022/12/08 05:09:04;;;;;;;8.60;5.32;;;6.40;85.80;;;;;;10810680;33;20028;-76
2022/12/08 05:15:06;;;;;;;8.20;5.62;;;5.90;85.60;;;;;;10819428;33;20405;-75
2022/12/08 05:21:08;;;;;;;7.40;3.80;;;5.60;86.00;;;;;;10821121;33;20066;-76
2022/12/08 05:27:11;;;;;;;6.53;4.50;;;5.50;86.20;;;;;;10823351;33;20035;-75
2022/12/08 05:33:13;;;;;;;7.10;4.25;;;5.40;86.40;;;;;;10823402;32;20086;-75
2022/12/08 05:39:15;;;;;;;5.97;4.28;;;5.40;86.30;;;;;;10821004;33;20016;-75
2022/12/08 05:45:18;;;;;;;6.93;4.05;;;5.50;86.40;;;;;;10827983;32;20024;-76
2022/12/08 05:51:22;;;;;;;6.10;4.03;;;5.60;86.10;;;;;;10829088;33;20195;-76
2022/12/08 05:57:24;;;;;;;7.70;5.03;;;5.60;85.90;;;;;;10828860;33;20024;-76
2022/12/08 06:03:26;;;;;;;10.65;5.80;;;5.40;86.00;;;;;;10824786;32;20027;-75
2022/12/08 06:09:28;;;;;;;7.70;4.82;;;5.20;86.00;;;;;;10813394;33;20019;-76
2022/12/08 06:15:45;;;;;;;7.22;5.43;;;5.10;86.20;;;;;;10828423;32;20028;-75
2022/12/08 06:21:47;;;;;;;9.20;5.37;;;5.00;86.40;;;;;;10828193;33;20043;-76
2022/12/08 06:28:13;;;;;;;6.57;5.10;;;5.10;86.50;;;;;;10814842;33;20042;-76
2022/12/08 06:34:15;;;;;;;6.87;5.00;;;5.00;86.20;;;;;;10814847;33;20294;-76
2022/12/08 06:40:17;;;;;;;9.38;7.05;;;4.80;85.90;;;;;;10825238;33;20020;-76
2022/12/08 06:46:19;;;;;;;6.62;4.55;;;4.60;86.10;;;;;;10823950;33;20055;-76
2022/12/08 06:52:21;;;;;;;6.60;4.60;;;4.60;86.20;;;;;;10827001;32;20012;-75
2022/12/08 06:58:23;;;;;;;10.60;7.43;;;4.50;86.20;;;;;;10827277;33;20051;-74
2022/12/08 07:04:33;;;;;;;9.57;6.40;;;4.40;86.00;;;;;;10826930;33;20024;-73
2022/12/08 07:10:35;;;;;;;11.02;8.55;;;4.30;86.10;;;;;;10810847;32;20024;-73
2022/12/08 07:16:38;;;;;;;10.13;6.85;;;4.20;86.10;;;;;;10826535;33;20050;-74
2022/12/08 07:22:49;;;;;;;8.98;6.05;;;4.30;86.20;;;;;;10826348;33;20054;-73
2022/12/08 07:28:51;;;;;;;12.05;9.55;;;4.30;86.30;;;;;;10824388;33;20047;-73
2022/12/08 07:34:52;;;;;;;12.57;10.60;;;4.40;86.40;;;;;;10826183;32;20098;-73
2022/12/08 07:40:55;;;;;;;13.18;9.60;;;4.80;86.30;;;;;;10824729;33;20024;-73
2022/12/08 07:46:57;;;;;;;17.17;10.23;;;5.30;86.30;;;;;;10825491;33;20039;-73
2022/12/08 07:52:59;;;;;;;19.75;11.30;;;5.80;85.90;;;;;;10825723;33;20017;-73
2022/12/08 07:59:02;;;;;;;14.07;9.75;;;5.90;85.90;;;;;;10825624;33;20047;-73
2022/12/08 08:05:05;;;;;;;12.60;8.18;;;5.90;86.70;;;;;;10821995;33;20028;-73
2022/12/08 08:11:07;;;;;;;13.82;9.30;;;5.50;85.80;;;;;;10821868;33;20024;-73
2022/12/08 08:17:09;;;;;;;11.75;7.20;;;5.10;85.90;;;;;;10821024;33;20047;-73
2022/12/08 08:23:11;;;;;;;10.70;7.20;;;4.80;86.10;;;;;;10420801;27;12196141;-73
2022/12/08 08:29:13;;;;;;;13.75;9.30;;;4.80;86.40;;;;;;10748662;33;20064;-73
2022/12/08 08:35:17;;;;;;;12.50;9.07;;;4.80;86.40;;;;;;10747459;33;20013;-73
2022/12/08 08:41:19;;;;;;;22.37;14.87;;;4.80;86.50;;;;;;10747647;33;20054;-73
2022/12/08 08:47:21;;;;;;;14.57;11.82;;;4.90;86.50;;;;;;10758535;33;20040;-73
2022/12/08 08:53:23;;;;;;;15.40;12.10;;;4.80;86.00;;;;;;10787431;33;20051;-73
2022/12/08 08:59:26;;;;;;;17.27;12.63;;;4.70;86.50;;;;;;10771622;33;20016;-73
2022/12/08 09:05:28;;;;;;;11.95;9.00;;;5.10;86.60;;;;;;10784167;33;20052;-74
2022/12/08 09:11:31;;;;;;;12.77;8.18;;;5.20;86.40;;;;;;10783161;33;20024;-74
2022/12/08 09:17:34;;;;;;;12.70;9.60;;;5.30;86.50;;;;;;10774288;33;20106;-74
2022/12/08 09:23:36;;;;;;;12.63;9.80;;;5.50;87.00;;;;;;10793130;33;20020;-74
2022/12/08 09:29:38;;;;;;;17.87;11.00;;;5.90;87.10;;;;;;10789476;33;20037;-74
2022/12/08 09:35:39;;;;;;;13.02;9.88;;;6.20;86.70;;;;;;10792856;33;20020;-74
2022/12/08 09:41:48;;;;;;;11.73;8.15;;;6.20;86.90;;;;;;10792842;32;20071;-74
2022/12/08 09:47:59;;;;;;;11.52;7.40;;;6.50;86.80;;;;;;10789914;33;20050;-76
2022/12/08 09:54:01;;;;;;;12.18;8.77;;;6.40;86.80;;;;;;10776038;33;20113;-76
2022/12/08 10:00:11;;;;;;;13.27;8.65;;;6.60;87.70;;;;;;10788003;33;20043;-76
2022/12/08 10:06:19;;;;;;;;;;;6.90;87.60;;;;;;10790843;33;20033;-76
2022/12/08 10:12:50;;;;;;;11.75;8.73;;;7.20;87.80;;;;;;10788040;33;19932;-76
2022/12/08 10:19:21;;;;;;;13.18;10.23;;;7.30;88.10;;;;;;10787769;33;20043;-76
2022/12/08 10:25:46;;;;;;;10.27;8.10;;;7.50;88.40;;;;;;10791368;32;20024;-76
2022/12/08 10:31:48;;;;;;;9.23;7.35;;;7.80;88.40;;;;;;10788793;33;20029;-76
2022/12/08 10:37:58;;;;;;;10.75;8.00;;;7.70;87.70;;;;;;10788379;33;20035;-76
2022/12/08 10:44:01;;;;;;;13.18;10.15;;;7.60;88.30;;;;;;10787432;33;20020;-76
2022/12/08 10:50:29;;;;;;;9.43;7.18;;;7.50;88.20;;;;;;10786844;33;20059;-76
2022/12/08 10:56:32;;;;;;;9.38;6.65;;;7.30;88.30;;;;;;10785423;33;20033;-76
2022/12/08 11:02:34;;;;;;;7.18;5.28;;;7.30;88.60;;;;;;10755034;33;20504;-76
2022/12/08 11:08:46;;;;;;;9.55;7.03;;;7.50;88.50;;;;;;10738826;33;20059;-76
2022/12/08 11:15:01;;;;;;;12.18;9.15;;;7.70;88.20;;;;;;10758013;33;20028;-76
2022/12/08 11:21:11;;;;;;;12.40;8.13;;;7.60;87.80;;;;;;10751137;33;20025;-76
2022/12/08 11:27:14;;;;;;;16.25;10.15;;;7.60;87.80;;;;;;10752009;33;20033;-73
2022/12/08 11:33:25;;;;;;;17.17;13.62;;;7.70;87.40;;;;;;10752886;33;20292;-73
2022/12/08 11:39:31;;;;;;;13.07;9.40;;;7.80;87.30;;;;;;10749581;33;20055;-73
2022/12/08 11:45:35;;;;;;;11.65;8.60;;;8.10;87.10;;;;;;10752471;33;20075;-73
2022/12/08 11:51:46;;;;;;;11.95;8.43;;;8.20;86.80;;;;;;10739415;33;20028;-73
2022/12/08 11:57:50;;;;;;;10.52;8.55;;;8.20;86.60;;;;;;10751424;33;20021;-75
2022/12/08 12:04:30;;;;;;;11.10;7.28;;;8.30;86.60;;;;;;10752149;33;20390;-76
2022/12/08 12:10:31;;;;;;;9.57;6.33;;;8.40;87.20;;;;;;10569072;33;20057;-73
2022/12/08 12:16:53;;;;;;;10.23;6.55;;;8.40;86.80;;;;;;10567886;33;20048;-74
2022/12/08 12:23:30;;;;;;;24.00;8.88;;;8.20;86.90;;;;;;10568719;33;20066;-74
2022/12/08 12:29:35;;;;;;;12.23;7.93;;;8.20;87.00;;;;;;10568592;33;20033;-74
2022/12/08 12:35:42;;;;;;;19.40;12.32;;;8.30;87.10;;;;;;10568400;33;20022;-76
2022/12/08 12:41:48;;;;;;;13.10;9.13;;;8.30;87.00;;;;;;10568363;33;20050;-76
2022/12/08 12:47:59;;;;;;;11.90;8.88;;;8.30;86.90;;;;;;10748312;33;20057;-75
2022/12/08 12:54:23;;;;;;;11.50;7.50;;;8.30;86.80;;;;;;10755721;33;20017;-76
2022/12/08 13:00:26;;;;;;;10.25;7.37;;;8.30;86.80;;;;;;10753520;33;20051;-76
2022/12/08 13:06:52;;;;;;;10.18;7.20;;;8.30;86.40;;;;;;10757078;33;20017;-76
2022/12/08 13:13:09;;;;;;;11.95;8.35;;;8.20;86.70;;;;;;10756625;33;20044;-75
2022/12/08 13:19:14;;;;;;;12.43;7.87;;;8.20;86.90;;;;;;10756149;33;20013;-76
2022/12/08 13:25:38;;;;;;;10.88;7.70;;;8.20;86.50;;;;;;10752346;33;20051;-76
2022/12/08 13:31:42;;;;;;;8.52;5.97;;;8.20;86.50;;;;;;10742981;33;20021;-76
2022/12/08 13:37:48;;;;;;;7.72;5.15;;;8.20;86.50;;;;;;10753846;33;20056;-75
2022/12/08 13:43:58;;;;;;;6.15;3.72;;;8.30;86.80;;;;;;10752701;33;20151;-76
2022/12/08 13:50:09;;;;;;;8.60;5.35;;;8.40;87.00;;;;;;10751807;33;20033;-76
2022/12/08 13:56:12;;;;;;;8.93;5.62;;;8.40;87.10;;;;;;10754972;33;20047;-76
2022/12/08 14:02:35;;;;;;;9.23;6.03;;;8.40;87.00;;;;;;10751661;33;20397;-76
2022/12/08 14:08:37;;;;;;;7.57;5.53;;;8.40;87.20;;;;;;10752813;33;20051;-75
2022/12/08 14:14:44;;;;;;;7.12;5.50;;;8.40;87.30;;;;;;10739312;33;20033;-75
2022/12/08 14:21:03;;;;;;;7.78;4.07;;;8.70;87.50;;;;;;10751017;33;20357;-75
2022/12/08 14:27:11;;;;;;;6.97;4.22;;;8.70;87.20;;;;;;10753349;33;20338;-76
2022/12/08 14:33:49;;;;;;;7.62;5.15;;;8.70;87.60;;;;;;10756803;33;20102;-76
2022/12/08 14:39:56;;;;;;;8.70;5.15;;;9.10;87.80;;;;;;10787646;33;20418;-75
2022/12/08 14:46:01;;;;;;;6.20;4.25;;;9.10;87.70;;;;;;10784897;33;20029;-75
2022/12/08 14:52:10;;;;;;;6.80;3.97;;;8.90;87.80;;;;;;10752623;33;20047;-75
2022/12/08 14:58:19;;;;;;;14.05;8.82;;;8.70;88.20;;;;;;10755552;33;20051;-75
2022/12/08 15:04:27;;;;;;;8.40;5.87;;;8.70;88.80;;;;;;10751447;33;20047;-75
2022/12/08 15:10:34;;;;;;;10.77;7.82;;;8.70;88.40;;;;;;10760589;33;20062;-75
2022/12/08 15:16:36;;;;;;;13.20;9.30;;;8.70;88.70;;;;;;10784968;33;20016;-75
2022/12/08 15:22:38;;;;;;;13.73;8.43;;;8.70;88.60;;;;;;10787937;33;20016;-75
2022/12/08 15:28:40;;;;;;;11.02;8.52;;;8.50;88.40;;;;;;10784399;33;20044;-76
2022/12/08 15:34:42;;;;;;;10.57;8.15;;;8.30;88.70;;;;;;10777973;33;20028;-76
2022/12/08 15:40:45;;;;;;;11.15;7.50;;;8.40;89.00;;;;;;10768566;33;20057;-75
2022/12/08 15:46:48;;;;;;;14.23;8.75;;;8.50;88.70;;;;;;10773336;32;20062;-75
2022/12/08 15:52:50;;;;;;;11.10;8.68;;;8.30;88.70;;;;;;10783981;32;20110;-73
2022/12/08 15:58:52;;;;;;;13.98;10.43;;;8.20;88.60;;;;;;10774270;33;20028;-73
2022/12/08 16:04:54;;;;;;;14.75;8.90;;;8.20;88.60;;;;;;10785129;32;20558;-73
2022/12/08 16:13:49;;;;;;;17.60;10.40;;;8.20;88.70;;;;;;10788105;33;20020;-73
2022/12/08 16:17:20;;;;;;;11.40;8.32;;;8.20;88.50;;;;;;10787135;33;20362;-73
2022/12/08 16:23:23;;;;;;;13.50;9.90;;;8.20;88.30;;;;;;10812547;27;20066;-73
2022/12/08 16:29:50;;;;;;;17.55;11.12;;;8.20;88.20;;;;;;10819477;33;20054;-73
2022/12/08 16:35:52;;;;;;;19.02;14.23;;;8.20;88.30;;;;;;10823087;33;20455;-72
2022/12/08 16:48:14;;;;;;;19.90;15.07;;;8.10;87.80;;;;;;10824495;33;20024;-72
2022/12/08 16:54:16;;;;;;;23.20;18.45;;;8.10;87.80;;;;;;10820672;33;20043;-72
2022/12/08 17:00:24;;;;;;;27.00;20.90;;;8.10;87.80;;;;;;10823249;33;20069;-72
2022/12/08 17:06:26;;;;;;;19.92;17.10;;;8.10;87.90;;;;;;10823873;33;20326;-73
2022/12/08 17:12:28;;;;;;;22.17;16.90;;;8.10;87.80;;;;;;10823768;33;20016;-73
2022/12/08 17:18:30;;;;;;;21.60;15.60;;;7.70;87.60;;;;;;10819557;33;20055;-73
2022/12/08 17:24:32;;;;;;;23.55;16.83;;;7.60;87.80;;;;;;10823349;33;20020;-72
2022/12/08 17:30:34;;;;;;;26.60;23.77;;;7.50;87.70;;;;;;10807436;33;20464;-72
2022/12/08 17:36:36;;;;;;;22.67;18.65;;;7.60;87.60;;;;;;10820883;33;20024;-73
2022/12/08 17:42:38;;;;;;;25.77;20.90;;;7.70;87.60;;;;;;10814145;33;20028;-73
2022/12/08 17:48:40;;;;;;;24.45;20.08;;;7.70;87.70;;;;;;10829299;33;20333;-73
2022/12/08 17:54:43;;;;;;;25.45;19.87;;;7.70;87.30;;;;;;10829325;32;20032;-72
2022/12/08 18:00:45;;;;;;;26.10;22.37;;;7.70;87.20;;;;;;10825214;33;20475;-73
2022/12/08 18:06:47;;;;;;;22.73;17.60;;;7.60;87.30;;;;;;10828154;33;20015;-73
2022/12/08 18:12:49;;;;;;;23.02;17.73;;;7.30;87.10;;;;;;10826681;33;20045;-73
2022/12/08 18:18:52;;;;;;;22.17;17.92;;;7.30;87.10;;;;;;10828549;33;20039;-73
2022/12/08 18:24:54;;;;;;;23.35;14.85;;;7.30;86.90;;;;;;10825410;33;20020;-73
2022/12/08 18:30:56;;;;;;;22.30;17.35;;;7.40;86.60;;;;;;10810828;33;20047;-75
2022/12/08 18:36:59;;;;;;;22.70;16.90;;;7.20;86.50;;;;;;10828041;32;20089;-75
2022/12/08 18:43:01;;;;;;;20.95;17.42;;;7.20;86.60;;;;;;10827897;33;20515;-73
2022/12/08 18:49:03;;;;;;;35.08;26.67;;;7.20;86.70;;;;;;10826878;32;20028;-73
2022/12/08 18:55:06;;;;;;;34.25;30.62;;;7.50;87.00;;;;;;10827391;33;20055;-73
2022/12/08 19:01:29;;;;;;;33.38;24.25;;;7.50;86.80;;;;;;10827234;33;20016;-74
2022/12/08 19:07:30;;;;;;;27.08;24.12;;;7.50;86.60;;;;;;10827071;33;20024;-73
2022/12/08 19:13:33;;;;;;;34.20;24.73;;;7.40;86.50;;;;;;10826874;33;20020;-73
2022/12/08 19:19:35;;;;;;;25.20;21.00;;;7.40;86.30;;;;;;10826701;33;20055;-73
2022/12/08 19:25:37;;;;;;;24.87;22.10;;;7.40;86.60;;;;;;10824157;33;20019;-73
2022/12/08 19:31:40;;;;;;;30.08;25.40;;;7.40;86.70;;;;;;10826391;33;20334;-73
2022/12/08 19:37:42;;;;;;;34.08;28.98;;;7.50;87.10;;;;;;10826270;33;20183;-73
2022/12/08 19:50:37;;;;;;;31.42;24.65;;;7.20;87.50;;;;;;10821556;33;20058;-75
2022/12/08 19:56:39;;;;;;;37.60;28.42;;;7.20;87.40;;;;;;10824341;33;20016;-75
2022/12/08 20:02:41;;;;;;;36.72;28.55;;;7.20;87.40;;;;;;10822158;32;20042;-76
2022/12/08 20:09:06;;;;;;;32.20;25.90;;;7.40;87.40;;;;;;10825153;33;20065;-75
2022/12/08 20:15:09;;;;;;;30.50;26.27;;;7.30;87.10;;;;;;10825192;32;20341;-75
2022/12/08 20:21:11;;;;;;;31.95;25.70;;;7.20;87.60;;;;;;10824039;33;20025;-75
2022/12/08 20:27:14;;;;;;;32.90;27.73;;;7.30;87.70;;;;;;10807565;33;20050;-75
2022/12/08 20:39:41;;;;;;;40.47;34.60;;;7.50;87.80;;;;;;10707473;32;20032;-75
2022/12/08 20:45:44;;;;;;;28.67;23.83;;;7.40;87.70;;;;;;10711183;33;20075;-75
2022/12/08 20:51:46;;;;;;;26.77;22.95;;;7.40;87.70;;;;;;10711592;33;20024;-75
2022/12/08 20:57:48;;;;;;;30.12;23.65;;;7.30;87.60;;;;;;10698951;33;20060;-75
2022/12/08 21:03:51;;;;;;;38.40;27.95;;;7.20;87.90;;;;;;10781798;33;20027;-75
2022/12/08 21:09:53;;;;;;;28.83;23.77;;;7.30;88.40;;;;;;10806494;33;20401;-75
2022/12/08 21:15:56;;;;;;;26.83;22.58;;;7.40;88.00;;;;;;10829522;32;20397;-75
2022/12/08 21:21:59;;;;;;;31.23;23.95;;;7.30;87.80;;;;;;10829981;33;20047;-75
2022/12/08 21:28:02;;;;;;;26.45;22.02;;;7.20;88.10;;;;;;10826410;33;20023;-75
2022/12/08 21:34:04;;;;;;;30.12;23.40;;;7.30;88.00;;;;;;10828489;33;20020;-75
2022/12/08 21:40:07;;;;;;;27.20;22.62;;;7.50;88.00;;;;;;10828096;33;20024;-75
2022/12/08 21:46:16;;;;;;;29.55;24.50;;;7.50;87.70;;;;;;10825266;33;20350;-75
2022/12/08 21:52:18;;;;;;;29.15;25.70;;;7.30;88.10;;;;;;10813271;33;20024;-75
2022/12/08 21:58:20;;;;;;;34.05;29.05;;;7.40;88.40;;;;;;10815747;32;20020;-75
2022/12/08 22:04:23;;;;;;;27.92;22.65;;;7.50;88.50;;;;;;10829022;33;20016;-75
2022/12/08 22:10:25;;;;;;;34.60;22.25;;;7.60;88.10;;;;;;10828625;32;20068;-75
2022/12/08 22:16:28;;;;;;;25.70;21.42;;;7.40;88.10;;;;;;10824326;33;20024;-75
2022/12/08 22:22:34;;;;;;;25.75;20.42;;;7.40;88.40;;;;;;10814432;32;20024;-75
2022/12/08 22:28:40;;;;;;;29.15;21.55;;;7.40;88.20;;;;;;10815155;33;20337;-74
2022/12/08 22:34:44;;;;;;;25.75;20.15;;;7.50;88.10;;;;;;10828041;33;20334;-73
2022/12/08 22:40:46;;;;;;;39.15;28.30;;;7.40;88.10;;;;;;10827212;33;20020;-73
2022/12/08 22:46:48;;;;;;;31.85;28.27;;;7.50;88.10;;;;;;10827567;33;20035;-73
2022/12/08 22:52:50;;;;;;;33.28;26.42;;;7.60;88.20;;;;;;10827416;33;20039;-73
2022/12/08 22:58:52;;;;;;;31.62;23.35;;;7.70;88.20;;;;;;10827379;32;20032;-73
2022/12/08 23:04:55;;;;;;;33.38;26.25;;;7.60;88.00;;;;;;10823152;32;20492;-74
2022/12/08 23:10:58;;;;;;;26.83;22.90;;;7.70;88.10;;;;;;10825029;33;20028;-73
2022/12/08 23:17:00;;;;;;;44.67;28.62;;;7.70;87.90;;;;;;10813805;32;20058;-73
2022/12/08 23:23:02;;;;;;;30.17;23.17;;;7.70;87.90;;;;;;10826554;33;20046;-73
2022/12/08 23:29:04;;;;;;;39.90;30.35;;;7.60;87.90;;;;;;10809099;33;20043;-74
2022/12/08 23:35:07;;;;;;;41.22;29.83;;;7.60;87.90;;;;;;10813082;32;20036;-74
2022/12/08 23:41:18;;;;;;;43.22;30.08;;;7.70;87.90;;;;;;10826026;33;20024;-74
2022/12/08 23:47:20;;;;;;;39.05;31.27;;;7.70;87.90;;;;;;10809937;33;20055;-74
2022/12/08 23:53:22;;;;;;;31.45;22.75;;;7.70;87.80;;;;;;10825787;33;20020;-73
2022/12/08 23:59:24;;;;;;;24.50;20.02;;;7.60;87.70;;;;;;10808505;33;20024;-73
